Time;durP1;ratioP1;P1;durP2;ratioP2;P2;SDS_P1;SDS_P2;PMS_P1;PMS_P2;Temp;Humidity;BMP_temperature;BMP_pressure;BME280_temperature;BME280_humidity;BME280_pressure;Samples;Min_cycle;Max_cycle;Signal;HPM_P1;HPM_P2
2021/06/20 00:00:39;;;;;;;12.27;8.65;;;27.00;65.60;;;;;;5122712;27;27415;-58
2021/06/20 00:03:24;;;;;;;13.10;8.60;;;27.00;65.60;;;;;;5125482;27;27476;-59
2021/06/20 00:06:49;;;;;;;11.82;8.00;;;27.00;65.70;;;;;;5125849;27;27591;-58
2021/06/20 00:09:34;;;;;;;14.30;8.50;;;26.90;65.70;;;;;;5062246;28;27614;-58
2021/06/20 00:12:19;;;;;;;11.57;8.10;;;26.90;65.90;;;;;;5048453;28;27515;-59
2021/06/20 00:15:06;;;;;;;11.10;8.23;;;26.90;66.10;;;;;;5048312;28;27532;-58
2021/06/20 00:17:50;;;;;;;10.55;8.40;;;26.90;66.50;;;;;;5062544;28;27522;-58
2021/06/20 00:20:39;;;;;;;12.70;8.73;;;26.80;66.20;;;;;;5062678;28;27342;-58
2021/06/20 00:23:24;;;;;;;9.60;8.63;;;26.80;66.40;;;;;;5062113;28;27421;-58
2021/06/20 00:26:09;;;;;;;14.00;8.60;;;26.80;66.80;;;;;;5045414;28;27423;-59
2021/06/20 00:28:53;;;;;;;14.52;8.73;;;26.80;66.60;;;;;;5061517;28;27622;-58
2021/06/20 00:31:38;;;;;;;10.18;8.75;;;26.80;66.90;;;;;;5062316;28;27529;-58
2021/06/20 00:34:23;;;;;;;12.38;8.55;;;26.70;66.40;;;;;;5048028;28;27410;-58
2021/06/20 00:37:08;;;;;;;11.23;8.07;;;26.70;66.60;;;;;;5062027;28;27496;-58
2021/06/20 00:39:52;;;;;;;10.18;8.73;;;26.70;66.70;;;;;;5062348;28;27539;-58
2021/06/20 00:42:37;;;;;;;10.20;9.05;;;26.70;66.70;;;;;;5072468;28;27524;-58
2021/06/20 00:45:22;;;;;;;10.60;9.13;;;26.70;66.90;;;;;;5104642;28;27411;-58
2021/06/20 00:48:07;;;;;;;13.82;9.48;;;26.60;66.60;;;;;;5100051;28;27945;-58
2021/06/20 00:50:51;;;;;;;12.60;8.80;;;26.60;66.80;;;;;;5103699;28;27434;-58
2021/06/20 00:53:36;;;;;;;20.45;8.35;;;26.60;67.00;;;;;;5104559;28;27465;-58
2021/06/20 00:56:21;;;;;;;14.52;8.00;;;26.50;67.00;;;;;;5103898;28;27439;-58
2021/06/20 00:59:05;;;;;;;14.95;8.30;;;26.50;67.10;;;;;;5101089;28;27496;-58
2021/06/20 01:01:50;;;;;;;12.65;8.80;;;26.50;66.90;;;;;;5104087;28;27476;-58
2021/06/20 01:04:34;;;;;;;13.73;7.82;;;26.50;67.10;;;;;;5103321;28;27476;-58
2021/06/20 01:07:20;;;;;;;16.38;9.65;;;26.50;66.90;;;;;;5099851;28;27483;-58
2021/06/20 01:10:06;;;;;;;14.40;9.32;;;26.50;67.20;;;;;;5104007;28;27401;-58
2021/06/20 01:12:51;;;;;;;16.20;9.00;;;26.50;67.10;;;;;;5103971;27;27419;-58
2021/06/20 01:15:36;;;;;;;20.15;9.15;;;26.40;67.10;;;;;;5103974;28;27426;-58
2021/06/20 01:18:21;;;;;;;15.68;8.35;;;26.40;67.30;;;;;;5103977;28;27464;-58
2021/06/20 01:21:07;;;;;;;15.23;7.68;;;26.40;67.20;;;;;;5103891;28;27427;-58
2021/06/20 01:23:52;;;;;;;15.82;8.10;;;26.40;67.30;;;;;;5088592;28;27497;-58
2021/06/20 01:26:36;;;;;;;20.42;8.32;;;26.30;67.30;;;;;;5096593;27;27471;-58
2021/06/20 01:29:21;;;;;;;20.23;9.93;;;26.40;67.30;;;;;;5124036;27;27471;-58
2021/06/20 01:32:06;;;;;;;22.38;8.32;;;26.30;67.20;;;;;;5123716;27;27452;-58
2021/06/20 01:34:51;;;;;;;20.85;9.23;;;26.30;67.30;;;;;;5124276;27;27474;-58
2021/06/20 01:37:35;;;;;;;18.67;8.43;;;26.20;67.10;;;;;;5123556;27;27492;-58
2021/06/20 01:40:20;;;;;;;27.38;7.78;;;26.20;67.30;;;;;;5124379;27;27625;-58
2021/06/20 01:43:04;;;;;;;21.45;8.23;;;26.20;67.10;;;;;;5123804;27;27870;-58
2021/06/20 01:45:49;;;;;;;28.58;8.23;;;26.20;67.10;;;;;;5124378;27;27483;-58
2021/06/20 01:48:36;;;;;;;26.20;8.10;;;26.10;67.00;;;;;;5124621;27;27425;-58
2021/06/20 01:51:23;;;;;;;24.48;8.15;;;26.20;67.00;;;;;;5123300;27;27599;-58
2021/06/20 01:54:08;;;;;;;20.52;7.78;;;26.10;66.80;;;;;;5124041;27;27473;-58
2021/06/20 01:56:52;;;;;;;24.38;8.63;;;26.10;66.70;;;;;;5124184;27;27611;-58
2021/06/20 01:59:37;;;;;;;20.80;8.73;;;26.10;66.80;;;;;;5124352;27;27418;-59
2021/06/20 02:02:22;;;;;;;19.02;7.20;;;26.10;66.80;;;;;;5105698;27;27446;-59
2021/06/20 02:05:07;;;;;;;35.55;9.05;;;26.10;66.70;;;;;;5124067;27;27445;-59
2021/06/20 02:07:52;;;;;;;31.02;7.68;;;26.00;66.70;;;;;;5123769;27;27418;-58
2021/06/20 02:10:37;;;;;;;28.77;8.23;;;26.00;66.80;;;;;;5123758;27;27419;-59
2021/06/20 02:13:23;;;;;;;24.38;7.72;;;26.00;66.90;;;;;;5108999;27;27415;-59
2021/06/20 02:16:08;;;;;;;25.92;8.50;;;26.00;66.90;;;;;;5123844;27;27392;-59
2021/06/20 02:18:52;;;;;;;28.45;7.68;;;26.00;66.80;;;;;;5123429;27;27478;-59
2021/06/20 02:21:37;;;;;;;22.00;7.88;;;25.90;66.90;;;;;;5123709;27;27455;-58
2021/06/20 02:24:21;;;;;;;23.83;8.10;;;25.90;66.80;;;;;;5105016;27;27431;-59
2021/06/20 02:27:09;;;;;;;24.65;7.80;;;25.90;66.90;;;;;;5125661;27;27486;-59
2021/06/20 02:29:55;;;;;;;23.42;7.57;;;25.80;66.70;;;;;;5127189;27;27356;-59
2021/06/20 02:32:40;;;;;;;24.40;8.00;;;25.80;66.60;;;;;;5108883;27;27327;-59
2021/06/20 02:35:25;;;;;;;27.85;8.52;;;25.80;66.50;;;;;;5127347;27;27332;-59
2021/06/20 02:38:10;;;;;;;29.55;8.07;;;25.80;66.60;;;;;;5127286;27;27335;-59
2021/06/20 02:40:54;;;;;;;28.55;8.00;;;25.70;67.20;;;;;;5126428;27;27385;-59
2021/06/20 02:43:39;;;;;;;32.67;8.88;;;25.70;66.80;;;;;;5127086;27;27405;-59
2021/06/20 02:46:23;;;;;;;25.42;7.50;;;25.70;66.90;;;;;;5125947;27;27393;-59
2021/06/20 02:49:08;;;;;;;15.57;6.70;;;25.70;67.10;;;;;;5126587;27;27473;-59
2021/06/20 02:51:52;;;;;;;22.30;7.70;;;25.70;67.20;;;;;;5127006;27;27410;-59
2021/06/20 02:54:37;;;;;;;17.15;7.20;;;25.70;67.20;;;;;;5125948;27;27489;-59
2021/06/20 02:57:24;;;;;;;25.52;7.78;;;25.70;67.20;;;;;;5093904;27;27469;-59
2021/06/20 03:00:09;;;;;;;24.88;7.68;;;25.70;67.20;;;;;;5126898;27;27367;-59
2021/06/20 03:02:54;;;;;;;25.08;8.45;;;25.70;67.20;;;;;;5126721;27;27478;-59
2021/06/20 03:05:39;;;;;;;26.17;7.82;;;25.70;67.20;;;;;;5126630;27;27373;-59
2021/06/20 03:08:23;;;;;;;16.33;6.45;;;25.60;67.10;;;;;;5126716;27;27576;-59
2021/06/20 03:11:08;;;;;;;18.08;6.82;;;25.60;67.30;;;;;;5126878;27;27505;-59
2021/06/20 03:13:52;;;;;;;23.50;7.07;;;25.60;67.30;;;;;;5123843;27;27438;-59
2021/06/20 03:16:37;;;;;;;32.85;7.18;;;25.60;67.40;;;;;;5125921;27;26943;-59
2021/06/20 03:19:22;;;;;;;22.58;7.45;;;25.60;67.40;;;;;;5126972;27;27355;-58
2021/06/20 03:22:09;;;;;;;26.23;7.90;;;25.50;67.30;;;;;;5126707;27;27438;-59
2021/06/20 03:24:54;;;;;;;33.60;8.43;;;25.50;67.60;;;;;;5122309;27;27324;-58
2021/06/20 03:27:38;;;;;;;24.10;7.38;;;25.50;67.60;;;;;;5126908;27;27510;-57
2021/06/20 03:30:23;;;;;;;25.77;6.97;;;25.50;67.40;;;;;;5125425;27;27537;-58
2021/06/20 03:33:08;;;;;;;21.08;7.57;;;25.50;67.30;;;;;;5126372;27;27848;-58
2021/06/20 03:35:53;;;;;;;22.77;7.15;;;25.50;67.50;;;;;;5126119;27;27434;-57
2021/06/20 03:38:39;;;;;;;19.20;6.43;;;25.50;67.50;;;;;;5125909;27;27503;-58
2021/06/20 03:41:24;;;;;;;22.90;7.57;;;25.40;67.80;;;;;;5126105;27;27331;-58
2021/06/20 03:44:09;;;;;;;19.33;6.65;;;25.40;67.40;;;;;;5122122;27;27928;-58
2021/06/20 03:46:54;;;;;;;18.85;5.75;;;25.40;67.40;;;;;;5125969;27;27331;-57
2021/06/20 03:49:38;;;;;;;24.85;5.80;;;25.40;67.50;;;;;;5126343;27;27346;-58
2021/06/20 03:52:23;;;;;;;17.98;6.10;;;25.40;67.60;;;;;;5125019;27;27442;-57
2021/06/20 03:55:09;;;;;;;15.98;6.57;;;25.40;67.40;;;;;;5125805;27;27946;-58
2021/06/20 03:57:54;;;;;;;14.10;5.68;;;25.30;67.40;;;;;;5125784;27;27413;-58
2021/06/20 04:00:38;;;;;;;22.05;6.93;;;25.30;67.40;;;;;;5125822;27;27355;-58
2021/06/20 04:03:24;;;;;;;19.48;7.03;;;25.40;67.70;;;;;;5125697;27;27393;-57
2021/06/20 04:06:08;;;;;;;17.85;6.10;;;25.30;67.80;;;;;;5125562;27;27863;-57
2021/06/20 04:08:53;;;;;;;18.58;5.88;;;25.30;68.30;;;;;;5122003;27;27465;-58
2021/06/20 04:11:38;;;;;;;20.33;5.95;;;25.40;68.30;;;;;;5125569;27;27573;-57
2021/06/20 04:14:23;;;;;;;27.38;6.75;;;25.40;68.30;;;;;;5125433;27;27399;-58
2021/06/20 04:17:07;;;;;;;13.55;5.30;;;25.40;68.50;;;;;;5121590;27;27944;-58
2021/06/20 04:19:52;;;;;;;18.75;6.10;;;25.40;68.40;;;;;;5125734;27;27478;-59
2021/06/20 04:22:36;;;;;;;28.33;5.47;;;25.40;68.30;;;;;;5125378;27;27438;-58
2021/06/20 04:25:21;;;;;;;18.83;5.78;;;25.40;68.50;;;;;;5125313;27;27460;-58
2021/06/20 04:28:05;;;;;;;22.33;5.47;;;25.40;68.60;;;;;;5125183;27;27479;-58
2021/06/20 04:30:54;;;;;;;22.42;6.05;;;25.40;68.60;;;;;;5121240;27;27459;-58
2021/06/20 04:33:39;;;;;;;21.10;5.65;;;25.40;68.70;;;;;;5124889;27;27336;-58
2021/06/20 04:36:23;;;;;;;14.63;6.50;;;25.40;68.80;;;;;;5125355;27;27394;-58
2021/06/20 04:39:09;;;;;;;18.17;6.15;;;25.30;68.80;;;;;;5125433;27;27488;-58
2021/06/20 04:41:53;;;;;;;17.65;6.07;;;25.40;69.10;;;;;;5125570;27;27459;-59
2021/06/20 04:44:45;;;;;;;13.45;5.28;;;25.40;69.20;;;;;;5125212;27;27496;-59
2021/06/20 04:47:30;;;;;;;17.67;4.80;;;25.40;69.30;;;;;;5124891;27;27565;-58
2021/06/20 04:50:14;;;;;;;23.38;6.35;;;25.40;69.50;;;;;;5123754;27;27477;-58
2021/06/20 04:52:59;;;;;;;18.92;5.47;;;25.30;69.40;;;;;;5124822;27;27511;-58
2021/06/20 04:55:43;;;;;;;15.88;4.55;;;25.30;69.40;;;;;;5106424;27;26972;-58
2021/06/20 04:58:28;;;;;;;13.98;5.97;;;25.30;69.40;;;;;;5124806;27;27389;-58
2021/06/20 05:01:12;;;;;;;21.58;5.95;;;25.30;69.50;;;;;;5124713;27;27115;-59
2021/06/20 05:03:57;;;;;;;15.80;5.63;;;25.40;69.80;;;;;;5124712;27;27374;-59
2021/06/20 05:06:42;;;;;;;16.02;5.13;;;25.40;70.00;;;;;;5125050;27;27381;-58
2021/06/20 05:09:26;;;;;;;17.90;5.90;;;25.30;69.80;;;;;;5124586;27;27340;-60
2021/06/20 05:12:11;;;;;;;17.15;5.13;;;25.30;69.70;;;;;;5124511;27;27416;-58
2021/06/20 05:14:56;;;;;;;14.98;5.20;;;25.30;69.70;;;;;;5123928;27;27468;-58
2021/06/20 05:17:40;;;;;;;16.67;5.18;;;25.40;69.50;;;;;;5124590;27;27417;-59
2021/06/20 05:20:25;;;;;;;13.80;4.60;;;25.40;69.60;;;;;;5123719;27;27397;-59
2021/06/20 05:23:10;;;;;;;17.83;4.82;;;25.40;69.30;;;;;;5124447;27;27388;-58
2021/06/20 05:25:54;;;;;;;16.02;4.03;;;25.50;69.00;;;;;;5124179;27;27372;-59
2021/06/20 05:28:39;;;;;;;17.70;5.32;;;25.50;69.20;;;;;;5105969;27;27446;-58
2021/06/20 05:31:23;;;;;;;15.55;4.25;;;25.60;69.20;;;;;;5124783;27;27402;-59
2021/06/20 05:34:08;;;;;;;17.48;4.80;;;25.60;69.10;;;;;;5123764;27;27427;-60
2021/06/20 05:36:53;;;;;;;16.88;4.63;;;25.70;68.60;;;;;;5124567;27;27465;-58
2021/06/20 05:39:38;;;;;;;20.42;5.20;;;25.70;68.60;;;;;;5124412;27;27463;-60
2021/06/20 05:42:23;;;;;;;17.25;4.75;;;25.60;68.60;;;;;;5120144;27;27465;-59
2021/06/20 05:45:08;;;;;;;15.55;4.93;;;25.70;69.00;;;;;;5124239;27;27476;-58
2021/06/20 05:47:52;;;;;;;16.02;4.63;;;25.60;68.70;;;;;;5124018;27;27473;-58
2021/06/20 05:50:37;;;;;;;15.88;4.97;;;25.60;68.70;;;;;;5124391;27;27413;-58
2021/06/20 05:53:21;;;;;;;18.17;4.07;;;25.60;68.70;;;;;;5124288;27;27412;-58
2021/06/20 05:56:06;;;;;;;17.42;4.90;;;25.60;69.00;;;;;;5120103;27;27462;-58
2021/06/20 05:58:50;;;;;;;11.88;3.50;;;25.70;68.80;;;;;;5105545;27;27512;-58
2021/06/20 06:01:35;;;;;;;14.93;4.57;;;25.70;68.90;;;;;;5127985;27;27457;-58
2021/06/20 06:04:21;;;;;;;13.13;3.75;;;25.70;69.20;;;;;;5127664;27;27487;-58
2021/06/20 06:07:05;;;;;;;18.33;4.45;;;25.70;69.60;;;;;;5127864;27;27405;-59
2021/06/20 06:09:49;;;;;;;15.48;3.85;;;25.70;69.30;;;;;;5127645;27;27504;-59
2021/06/20 06:12:34;;;;;;;10.02;3.95;;;25.80;69.30;;;;;;5109010;27;27419;-58
2021/06/20 06:15:19;;;;;;;17.98;3.90;;;25.90;69.70;;;;;;5127780;27;27407;-58
2021/06/20 06:18:04;;;;;;;13.82;3.63;;;25.90;69.50;;;;;;5127465;27;27993;-58
2021/06/20 06:20:48;;;;;;;12.30;3.42;;;26.00;69.90;;;;;;5127657;27;27319;-58
2021/06/20 06:23:33;;;;;;;13.70;3.85;;;26.10;68.60;;;;;;5123610;27;27395;-58
2021/06/20 06:26:18;;;;;;;9.93;3.88;;;26.10;69.40;;;;;;5127040;27;27382;-59
2021/06/20 06:29:03;;;;;;;14.15;3.53;;;26.10;69.50;;;;;;5127179;27;27875;-58
2021/06/20 06:31:47;;;;;;;15.05;4.78;;;26.20;69.80;;;;;;5127388;27;27394;-58
2021/06/20 06:34:33;;;;;;;11.48;3.40;;;26.20;69.40;;;;;;5127179;27;27335;-58
2021/06/20 06:37:18;;;;;;;24.05;4.47;;;26.30;69.50;;;;;;5122996;27;27376;-59
2021/06/20 06:40:04;;;;;;;11.63;3.47;;;26.40;69.70;;;;;;5123179;27;27355;-58
2021/06/20 06:42:48;;;;;;;14.57;3.92;;;26.50;69.50;;;;;;5108473;27;27403;-59
2021/06/20 06:45:33;;;;;;;10.82;3.67;;;26.50;69.50;;;;;;5125905;27;26964;-58
2021/06/20 06:48:17;;;;;;;17.70;4.03;;;26.50;69.20;;;;;;5125936;27;26905;-59
2021/06/20 06:51:02;;;;;;;15.75;4.45;;;26.60;69.50;;;;;;5126612;27;27381;-58
2021/06/20 06:53:46;;;;;;;14.43;4.00;;;26.60;69.30;;;;;;5126772;27;27459;-59
2021/06/20 06:56:31;;;;;;;16.40;4.00;;;26.60;68.70;;;;;;5097329;27;27446;-58
2021/06/20 06:59:15;;;;;;;14.27;3.65;;;26.70;69.10;;;;;;5126581;27;27321;-58
2021/06/20 07:02:00;;;;;;;15.85;4.05;;;26.70;68.90;;;;;;5125721;27;27953;-58
2021/06/20 07:04:45;;;;;;;13.00;2.85;;;26.60;68.30;;;;;;5126873;27;27401;-59
2021/06/20 07:07:29;;;;;;;15.00;4.60;;;26.60;68.60;;;;;;5126847;27;27473;-58
2021/06/20 07:10:14;;;;;;;10.95;3.70;;;26.70;69.10;;;;;;5126864;27;27511;-58
2021/06/20 07:12:58;;;;;;;14.55;4.32;;;26.80;70.00;;;;;;5125814;27;27980;-59
2021/06/20 07:15:43;;;;;;;15.60;4.65;;;27.00;70.20;;;;;;5126424;27;27479;-58
2021/06/20 07:18:28;;;;;;;15.13;3.72;;;27.10;69.00;;;;;;5126501;27;27479;-59
2021/06/20 07:21:12;;;;;;;13.38;3.70;;;27.20;66.70;;;;;;5126548;27;27320;-58
2021/06/20 07:23:56;;;;;;;15.77;3.83;;;27.20;67.70;;;;;;5126378;27;27875;-58
2021/06/20 07:26:41;;;;;;;12.70;3.35;;;27.10;67.10;;;;;;5125588;27;27489;-58
2021/06/20 07:29:26;;;;;;;15.15;3.20;;;27.10;67.00;;;;;;5126710;27;27483;-59
2021/06/20 07:32:11;;;;;;;8.88;3.35;;;27.10;66.30;;;;;;5126545;27;27477;-58
2021/06/20 07:34:55;;;;;;;10.30;3.17;;;27.00;66.70;;;;;;5127309;27;28168;-58
2021/06/20 07:37:40;;;;;;;9.07;3.10;;;27.00;65.70;;;;;;5126986;27;27465;-59
2021/06/20 07:40:25;;;;;;;8.68;2.78;;;27.00;63.30;;;;;;5127058;27;27476;-58
2021/06/20 07:43:09;;;;;;;11.18;3.45;;;26.90;63.50;;;;;;5123602;27;27430;-59
2021/06/20 07:45:55;;;;;;;13.43;3.00;;;26.80;63.50;;;;;;5125854;27;27424;-59
2021/06/20 07:48:40;;;;;;;11.50;2.80;;;26.80;62.50;;;;;;5125988;27;27413;-59
2021/06/20 07:51:25;;;;;;;9.82;2.83;;;26.80;63.10;;;;;;5126948;27;27463;-59
2021/06/20 07:54:10;;;;;;;14.32;2.75;;;26.80;63.70;;;;;;5094174;27;27467;-58
2021/06/20 07:56:54;;;;;;;12.93;3.55;;;26.80;64.40;;;;;;5126921;27;27997;-58
2021/06/20 07:59:39;;;;;;;11.20;2.45;;;26.90;65.40;;;;;;5126870;27;27381;-58
2021/06/20 08:02:23;;;;;;;10.20;3.47;;;26.90;63.30;;;;;;5126923;27;27360;-58
2021/06/20 08:05:08;;;;;;;11.98;2.95;;;26.90;60.90;;;;;;5126615;27;27393;-58
2021/06/20 08:07:53;;;;;;;5.15;2.45;;;26.90;61.70;;;;;;5126610;27;27966;-58
2021/06/20 08:10:38;;;;;;;13.20;2.85;;;26.90;62.50;;;;;;5126717;27;27612;-58
2021/06/20 08:13:23;;;;;;;11.38;2.88;;;26.90;62.60;;;;;;5126191;27;26991;-57
2021/06/20 08:16:07;;;;;;;9.35;2.58;;;26.90;63.30;;;;;;5122346;27;27335;-58
2021/06/20 08:18:52;;;;;;;10.00;2.70;;;26.90;63.40;;;;;;5126586;27;27378;-58
2021/06/20 08:21:36;;;;;;;7.55;3.03;;;27.00;63.00;;;;;;5126290;27;27353;-58
2021/06/20 08:24:21;;;;;;;11.07;2.85;;;27.00;62.50;;;;;;5126303;27;27413;-58
2021/06/20 08:27:06;;;;;;;11.00;2.60;;;27.00;63.90;;;;;;5125498;27;27381;-58
2021/06/20 08:29:53;;;;;;;10.25;2.47;;;27.10;62.30;;;;;;5126363;27;27942;-58
2021/06/20 08:32:38;;;;;;;6.22;2.50;;;27.10;63.20;;;;;;5126931;27;27331;-58
2021/06/20 08:35:23;;;;;;;6.03;3.08;;;27.20;63.90;;;;;;5126385;27;27371;-59
2021/06/20 08:38:07;;;;;;;4.35;2.20;;;27.30;62.80;;;;;;5126375;27;26887;-58
2021/06/20 08:40:56;;;;;;;7.50;2.20;;;27.40;63.00;;;;;;5125899;27;27406;-59
2021/06/20 08:43:41;;;;;;;11.15;2.08;;;27.50;62.30;;;;;;5126334;27;27477;-59
2021/06/20 08:46:26;;;;;;;13.68;2.20;;;27.60;62.30;;;;;;5125439;27;27489;-59
2021/06/20 08:49:11;;;;;;;6.30;1.95;;;27.70;60.10;;;;;;5125865;27;27411;-59
2021/06/20 08:51:57;;;;;;;3.50;1.95;;;27.70;60.30;;;;;;5122648;27;28045;-57
2021/06/20 08:57:47;;;;;;;3.60;1.80;;;27.80;60.00;;;;;;5125719;27;27458;-57
2021/06/20 09:00:32;;;;;;;7.72;2.38;;;27.80;60.90;;;;;;5122618;27;27379;-58
2021/06/20 09:03:17;;;;;;;5.45;1.88;;;27.90;60.10;;;;;;5125863;27;27415;-57
2021/06/20 09:06:16;;;;;;;6.55;1.77;;;27.90;60.60;;;;;;5125393;27;27797;-59
2021/06/20 09:09:03;;;;;;;9.88;2.22;;;27.90;59.90;;;;;;5125343;27;27443;-57
2021/06/20 09:11:48;;;;;;;5.97;2.08;;;28.00;60.30;;;;;;5125625;27;27307;-59
2021/06/20 09:14:43;;;;;;;4.70;2.08;;;28.00;60.00;;;;;;5125499;27;27350;-58
2021/06/20 09:17:28;;;;;;;13.55;1.77;;;28.10;60.70;;;;;;5125634;27;27358;-59
2021/06/20 09:20:13;;;;;;;2.70;1.60;;;28.10;60.20;;;;;;5122393;27;27367;-58
2021/06/20 09:22:58;;;;;;;6.32;1.70;;;28.20;59.50;;;;;;5124914;27;27396;-58
2021/06/20 09:25:57;;;;;;;5.72;1.65;;;28.30;60.80;;;;;;5124566;27;27353;-59
2021/06/20 09:28:41;;;;;;;9.18;2.05;;;28.40;60.20;;;;;;5125267;27;27442;-59
2021/06/20 09:31:27;;;;;;;5.53;1.77;;;28.50;58.80;;;;;;5125242;27;27473;-58
2021/06/20 09:34:12;;;;;;;4.03;1.63;;;28.60;56.20;;;;;;5123665;27;27419;-60
2021/06/20 09:37:00;;;;;;;7.90;1.90;;;28.70;56.70;;;;;;5125393;27;27448;-59
2021/06/20 09:39:45;;;;;;;7.53;1.80;;;28.70;56.60;;;;;;5125103;27;27392;-59
2021/06/20 09:42:30;;;;;;;6.43;2.08;;;28.80;56.40;;;;;;5125323;27;27367;-59
2021/06/20 09:49:45;;;;;;;6.88;1.95;;;28.80;58.60;;;;;;5122333;27;27942;-59
2021/06/20 09:52:38;;;;;;;11.98;1.65;;;28.90;59.20;;;;;;5107388;27;27344;-59
2021/06/20 09:55:32;;;;;;;8.95;1.85;;;28.90;57.80;;;;;;5124135;27;27402;-59
2021/06/20 09:58:27;;;;;;;3.45;1.60;;;29.00;59.00;;;;;;5107810;27;27325;-61
2021/06/20 10:01:18;;;;;;;4.78;1.60;;;29.20;58.70;;;;;;5108031;27;27367;-59
2021/06/20 10:04:11;;;;;;;8.30;2.20;;;29.40;58.40;;;;;;5124900;27;27465;-60
2021/06/20 10:07:06;;;;;;;4.60;1.95;;;29.50;56.80;;;;;;5124140;27;27348;-59
2021/06/20 10:10:23;;;;;;;7.13;1.95;;;29.60;56.30;;;;;;5106518;27;27441;-60
2021/06/20 10:13:13;;;;;;;5.45;1.90;;;29.60;57.70;;;;;;5124631;27;27875;-59
2021/06/20 10:16:32;;;;;;;9.30;1.85;;;29.60;53.90;;;;;;5106613;27;27405;-59
2021/06/20 10:19:24;;;;;;;5.38;1.92;;;29.60;52.70;;;;;;5120956;27;27381;-59
2021/06/20 10:22:16;;;;;;;7.05;1.67;;;29.50;52.40;;;;;;5123862;27;27459;-59
2021/06/20 10:25:26;;;;;;;6.00;1.63;;;29.50;52.50;;;;;;5120437;27;27398;-59
2021/06/20 10:28:15;;;;;;;6.50;1.63;;;29.50;53.60;;;;;;5102881;28;27488;-60
2021/06/20 10:31:09;;;;;;;8.10;1.95;;;29.50;52.70;;;;;;5103585;28;27380;-59
2021/06/20 10:33:58;;;;;;;7.88;1.90;;;29.60;52.30;;;;;;5104187;28;27312;-61
2021/06/20 10:36:51;;;;;;;8.02;2.17;;;29.70;51.80;;;;;;5103095;28;27400;-60
2021/06/20 10:39:48;;;;;;;13.02;2.15;;;29.80;51.60;;;;;;5103371;28;27385;-61
2021/06/20 10:42:40;;;;;;;7.85;2.00;;;29.80;51.60;;;;;;5103378;28;27525;-61
2021/06/20 10:45:37;;;;;;;5.00;2.15;;;30.00;52.30;;;;;;5099842;28;27415;-60
2021/06/20 10:48:35;;;;;;;8.68;2.53;;;30.10;51.50;;;;;;5092597;28;27876;-61
2021/06/20 10:51:26;;;;;;;11.38;1.85;;;30.30;50.50;;;;;;5089689;28;27403;-61
2021/06/20 10:54:42;;;;;;;10.52;2.55;;;30.50;50.00;;;;;;5103380;28;27396;-60
2021/06/20 10:57:44;;;;;;;9.27;2.40;;;30.80;50.40;;;;;;5088714;28;27485;-61
2021/06/20 11:00:44;;;;;;;9.85;2.13;;;30.90;50.20;;;;;;5103160;28;27976;-59
2021/06/20 11:04:11;;;;;;;7.35;2.13;;;31.00;50.40;;;;;;5093692;28;27482;-60
2021/06/20 11:07:31;;;;;;;12.02;2.58;;;31.10;47.50;;;;;;5106439;28;27461;-60
2021/06/20 11:10:32;;;;;;;10.68;2.83;;;31.20;48.00;;;;;;5107226;28;27306;-61
2021/06/20 11:13:23;;;;;;;11.43;2.63;;;31.30;47.80;;;;;;5103492;28;27467;-60
2021/06/20 11:16:37;;;;;;;12.23;3.22;;;31.50;48.00;;;;;;5106360;28;27520;-60
2021/06/20 11:19:35;;;;;;;16.65;3.25;;;31.70;46.70;;;;;;5107095;28;27360;-60
2021/06/20 11:22:50;;;;;;;13.63;2.92;;;31.70;46.50;;;;;;5106377;28;27572;-60
2021/06/20 11:26:02;;;;;;;9.07;2.88;;;31.90;47.70;;;;;;5095794;27;27370;-62
2021/06/20 11:29:39;;;;;;;12.65;2.80;;;32.00;47.70;;;;;;5112297;27;27479;-62
2021/06/20 11:33:28;;;;;;;13.77;2.75;;;32.20;48.10;;;;;;5114725;27;27442;-61
2021/06/20 11:36:26;;;;;;;18.98;3.25;;;32.40;50.00;;;;;;5109875;27;27351;-61
2021/06/20 11:39:18;;;;;;;16.67;3.15;;;32.60;48.60;;;;;;5113057;27;27398;-61
2021/06/20 11:46:22;;;;;;;17.75;3.70;;;32.70;47.40;;;;;;5125998;27;27386;-61
2021/06/20 11:49:11;;;;;;;16.65;4.05;;;32.70;46.20;;;;;;5126615;27;27393;-62
2021/06/20 11:52:12;;;;;;;19.23;4.03;;;32.70;47.50;;;;;;5126077;27;27404;-61
2021/06/20 11:55:19;;;;;;;23.77;4.35;;;32.70;48.00;;;;;;5112424;27;27451;-61
2021/06/20 11:58:12;;;;;;;22.90;5.00;;;32.70;50.30;;;;;;5111573;27;27443;-62
2021/06/20 12:01:04;;;;;;;16.77;3.42;;;32.70;48.60;;;;;;5126252;27;27397;-61
2021/06/20 12:04:02;;;;;;;13.38;4.05;;;32.60;47.60;;;;;;5108138;27;27340;-60
2021/06/20 12:07:41;;;;;;;19.13;4.10;;;32.60;48.40;;;;;;5108363;27;27521;-61
2021/06/20 12:10:53;;;;;;;18.85;4.13;;;32.70;50.60;;;;;;5125918;27;27440;-61
2021/06/20 12:13:52;;;;;;;20.75;4.75;;;32.90;51.50;;;;;;5122414;27;27335;-61
2021/06/20 12:17:06;;;;;;;21.52;4.25;;;33.00;51.30;;;;;;5111497;27;27853;-61
2021/06/20 12:20:14;;;;;;;21.05;3.97;;;33.10;48.70;;;;;;5125934;27;27450;-61
2021/06/20 12:23:39;;;;;;;22.35;4.50;;;33.20;49.90;;;;;;5126342;27;27338;-61
2021/06/20 12:26:33;;;;;;;20.85;4.57;;;33.30;49.90;;;;;;5111973;27;27455;-62
2021/06/20 12:29:37;;;;;;;23.10;4.60;;;33.30;48.40;;;;;;5122891;27;27308;-61
2021/06/20 12:32:27;;;;;;;31.25;5.35;;;33.40;50.00;;;;;;5108151;27;27459;-60
2021/06/20 12:35:27;;;;;;;32.00;5.30;;;33.40;49.10;;;;;;5111512;27;27486;-62
2021/06/20 12:38:20;;;;;;;29.65;5.85;;;33.40;45.80;;;;;;5126041;27;27407;-61
2021/06/20 12:41:25;;;;;;;35.67;5.85;;;33.40;48.50;;;;;;5126196;27;27414;-60
2021/06/20 12:44:14;;;;;;;25.88;5.38;;;33.40;47.80;;;;;;5125117;27;27470;-61
2021/06/20 12:47:04;;;;;;;39.40;6.65;;;33.40;48.90;;;;;;5110959;27;27473;-61
2021/06/20 12:49:56;;;;;;;26.27;5.60;;;33.30;50.10;;;;;;5122476;27;27367;-63
2021/06/20 12:53:08;;;;;;;30.98;5.95;;;33.40;51.20;;;;;;5125099;27;27878;-62
2021/06/20 12:56:28;;;;;;;25.42;6.03;;;33.30;49.10;;;;;;5121874;27;27385;-62
2021/06/20 13:00:35;;;;;;;29.75;5.40;;;33.30;48.90;;;;;;5125832;27;27479;-63
2021/06/20 13:03:56;;;;;;;28.05;5.47;;;33.20;50.10;;;;;;5125639;27;27448;-63
2021/06/20 13:07:45;;;;;;;26.38;5.00;;;33.20;48.30;;;;;;5106854;27;27942;-61
2021/06/20 13:11:51;;;;;;;31.58;5.88;;;33.20;51.40;;;;;;5124939;27;27339;-62
2021/06/20 13:14:49;;;;;;;29.50;5.60;;;33.30;51.40;;;;;;5124880;27;27401;-61
2021/06/20 13:21:44;;;;;;;26.42;5.85;;;33.40;52.60;;;;;;5102226;28;27530;-63
2021/06/20 13:25:18;;;;;;;28.73;5.00;;;33.40;52.30;;;;;;5103302;28;27436;-61
2021/06/20 13:28:33;;;;;;;32.50;6.43;;;33.40;51.50;;;;;;5088741;28;27530;-62
2021/06/20 13:32:36;;;;;;;28.95;5.05;;;33.40;50.20;;;;;;5076126;28;28195;-62
2021/06/20 13:36:12;;;;;;;22.85;5.72;;;33.30;51.30;;;;;;5102269;28;27438;-61
2021/06/20 13:39:07;;;;;;;23.90;4.55;;;33.40;49.30;;;;;;5088944;28;27407;-62
2021/06/20 13:42:03;;;;;;;31.40;5.82;;;33.40;48.20;;;;;;5099701;28;27478;-61
2021/06/20 13:45:04;;;;;;;26.02;5.13;;;33.40;48.30;;;;;;5076338;28;27523;-60
2021/06/20 13:47:49;;;;;;;25.60;5.47;;;33.30;45.30;;;;;;5102918;28;28052;-60
2021/06/20 13:50:34;;;;;;;27.58;6.63;;;33.40;46.80;;;;;;5106539;27;27423;-60
2021/06/20 13:53:19;;;;;;;24.83;6.20;;;33.40;48.60;;;;;;5125326;27;27418;-60
2021/06/20 13:56:04;;;;;;;18.77;4.57;;;33.40;48.90;;;;;;5125200;27;27405;-62
2021/06/20 13:58:49;;;;;;;24.88;5.55;;;33.40;50.30;;;;;;5120782;27;27474;-60
2021/06/20 14:01:36;;;;;;;24.70;5.20;;;33.40;49.00;;;;;;5125083;27;27461;-61
2021/06/20 14:04:20;;;;;;;22.42;5.75;;;33.40;50.80;;;;;;5124324;27;27332;-60
2021/06/20 14:07:05;;;;;;;33.13;6.05;;;33.30;50.00;;;;;;5120759;27;27324;-60
2021/06/20 14:09:50;;;;;;;22.55;5.97;;;33.30;49.60;;;;;;5124621;27;27368;-60
2021/06/20 14:12:36;;;;;;;19.58;5.30;;;33.20;48.80;;;;;;5124958;27;27408;-60
2021/06/20 14:15:21;;;;;;;27.77;6.43;;;33.10;47.70;;;;;;5121405;27;27364;-60
2021/06/20 14:18:07;;;;;;;28.17;5.40;;;33.00;47.20;;;;;;5124617;27;27394;-60
2021/06/20 14:20:52;;;;;;;23.08;4.82;;;32.90;45.10;;;;;;5125801;27;27852;-60
2021/06/20 14:23:36;;;;;;;31.90;6.07;;;32.80;46.60;;;;;;5128176;27;27359;-60
2021/06/20 14:26:21;;;;;;;28.40;4.95;;;32.70;47.70;;;;;;5124360;27;27382;-61
2021/06/20 14:29:06;;;;;;;20.65;5.35;;;32.60;47.70;;;;;;5127821;27;27343;-60
2021/06/20 14:31:51;;;;;;;31.60;6.22;;;32.60;47.10;;;;;;5127593;27;27394;-61
2021/06/20 14:34:36;;;;;;;29.38;6.20;;;32.50;48.60;;;;;;5128264;27;27318;-60
2021/06/20 14:37:24;;;;;;;26.92;6.18;;;32.40;49.50;;;;;;5128303;27;27366;-60
2021/06/20 14:40:09;;;;;;;29.52;5.70;;;32.40;50.00;;;;;;5128230;27;27395;-60
2021/06/20 14:42:55;;;;;;;19.33;5.15;;;32.30;51.00;;;;;;5128173;27;27402;-60
2021/06/20 14:45:39;;;;;;;24.70;5.63;;;32.30;51.10;;;;;;5127335;27;27594;-62
2021/06/20 14:48:25;;;;;;;34.38;6.72;;;32.30;51.40;;;;;;5127728;27;27408;-60
2021/06/20 14:51:09;;;;;;;25.70;5.50;;;32.30;51.30;;;;;;5127822;27;27311;-61